createdAt,value
2023-03-03T00:01:12.382Z,9.35
2023-03-03T00:03:41.602Z,13.18
2023-03-03T00:06:11.503Z,11.43
2023-03-03T00:08:39.504Z,11.85
2023-03-03T00:11:07.848Z,11.75
2023-03-03T00:13:45.589Z,9.80
2023-03-03T00:16:22.254Z,12.52
2023-03-03T00:18:51.931Z,11.32
2023-03-03T00:21:31.427Z,10.70
2023-03-03T00:24:22.371Z,10.63
2023-03-03T00:26:52.233Z,12.73
2023-03-03T00:29:41.920Z,8.88
2023-03-03T00:32:27.506Z,10.55
2023-03-03T00:35:02.709Z,10.75
2023-03-03T00:37:33.870Z,15.35
2023-03-03T00:40:23.856Z,10.20
2023-03-03T00:42:53.944Z,9.32
2023-03-03T00:45:31.633Z,9.85
2023-03-03T00:48:00.313Z,9.70
2023-03-03T00:50:32.774Z,13.55
2023-03-03T00:53:04.768Z,7.07
2023-03-03T00:55:33.443Z,9.48
2023-03-03T00:58:01.700Z,6.30
2023-03-03T01:00:35.006Z,8.63
2023-03-03T01:03:08.367Z,9.30
2023-03-03T01:05:37.947Z,9.23
2023-03-03T01:08:10.162Z,9.15
2023-03-03T01:10:43.057Z,8.05
2023-03-03T01:13:12.134Z,11.65
2023-03-03T01:15:41.430Z,7.07
2023-03-03T01:18:10.431Z,7.35
2023-03-03T01:20:39.835Z,8.02
2023-03-03T01:23:08.052Z,9.52
2023-03-03T01:25:36.209Z,12.32
2023-03-03T01:28:04.463Z,5.45
2023-03-03T01:30:32.637Z,7.32
2023-03-03T01:33:01.104Z,8.63
2023-03-03T01:35:30.029Z,9.45
2023-03-03T01:37:59.932Z,7.03
2023-03-03T01:40:30.170Z,4.75
2023-03-03T01:43:00.019Z,5.00
2023-03-03T01:45:30.801Z,9.45
2023-03-03T01:48:03.079Z,11.80
2023-03-03T01:50:41.103Z,5.25
2023-03-03T01:53:15.653Z,7.70
2023-03-03T01:55:45.268Z,7.40
2023-03-03T01:58:17.329Z,9.18
2023-03-03T02:00:54.828Z,9.18
2023-03-03T02:03:24.813Z,9.65
2023-03-03T02:05:57.352Z,9.30
2023-03-03T02:08:34.485Z,7.13
2023-03-03T02:11:03.292Z,16.17
2023-03-03T02:13:31.182Z,10.18
2023-03-03T02:15:59.226Z,7.40
2023-03-03T02:18:28.775Z,12.18
2023-03-03T02:21:04.259Z,8.13
2023-03-03T02:23:39.609Z,6.93
2023-03-03T02:26:11.805Z,10.45
2023-03-03T02:28:42.132Z,10.40
2023-03-03T02:31:15.895Z,11.85
2023-03-03T02:33:47.034Z,8.27
2023-03-03T02:36:16.821Z,12.18
2023-03-03T02:38:50.448Z,11.02
2023-03-03T02:41:30.103Z,7.25
2023-03-03T02:44:01.783Z,11.00
2023-03-03T02:46:34.898Z,8.82
2023-03-03T02:49:02.858Z,15.70
2023-03-03T02:51:31.103Z,9.27
2023-03-03T02:53:59.075Z,10.02
2023-03-03T02:56:31.790Z,12.80
2023-03-03T02:58:59.981Z,15.10
2023-03-03T03:01:31.821Z,7.55
2023-03-03T03:04:00.124Z,6.90
2023-03-03T03:06:28.856Z,9.20
2023-03-03T03:08:57.737Z,8.43
2023-03-03T03:11:25.791Z,10.85
2023-03-03T03:13:55.005Z,11.02
2023-03-03T03:16:24.092Z,14.35
2023-03-03T03:18:51.984Z,8.38
2023-03-03T03:21:20.574Z,7.85
2023-03-03T03:23:48.789Z,9.65
2023-03-03T03:26:16.597Z,6.82
2023-03-03T03:28:45.380Z,12.70
2023-03-03T03:31:15.406Z,4.78
2023-03-03T03:33:43.726Z,7.55
2023-03-03T03:36:12.713Z,11.93
2023-03-03T03:38:42.317Z,9.00
2023-03-03T03:41:13.287Z,11.00
2023-03-03T03:43:41.564Z,13.25
2023-03-03T03:46:10.180Z,11.05
2023-03-03T03:48:39.435Z,7.88
2023-03-03T03:51:11.994Z,7.88
2023-03-03T03:53:41.088Z,8.68
2023-03-03T03:56:09.434Z,9.32
2023-03-03T03:58:37.506Z,10.70
2023-03-03T04:01:09.969Z,8.43
2023-03-03T04:03:45.154Z,12.75
2023-03-03T04:06:17.140Z,10.20
2023-03-03T04:08:45.544Z,9.15
2023-03-03T04:11:13.532Z,13.07
2023-03-03T04:13:41.507Z,10.93
2023-03-03T04:16:10.796Z,13.73
2023-03-03T04:18:43.522Z,13.23
2023-03-03T04:21:16.084Z,11.77
2023-03-03T04:23:46.507Z,14.13
2023-03-03T04:26:14.547Z,15.45
2023-03-03T04:28:44.724Z,13.23
2023-03-03T04:31:13.040Z,17.83
2023-03-03T04:33:41.526Z,13.68
2023-03-03T04:36:10.011Z,16.98
2023-03-03T04:38:40.146Z,11.13
2023-03-03T04:41:07.928Z,14.90
2023-03-03T04:43:38.498Z,12.95
2023-03-03T04:46:06.902Z,13.65
2023-03-03T04:48:36.806Z,11.27
2023-03-03T04:51:05.816Z,12.40
2023-03-03T04:53:36.617Z,12.88
2023-03-03T04:56:06.798Z,14.10
2023-03-03T04:58:34.684Z,12.40
2023-03-03T05:01:03.050Z,15.82
2023-03-03T05:03:32.974Z,15.55
2023-03-03T05:06:01.209Z,12.13
2023-03-03T05:08:28.990Z,15.25
2023-03-03T05:10:56.879Z,12.07
2023-03-03T05:13:27.179Z,10.77
2023-03-03T05:15:56.897Z,13.82
2023-03-03T05:18:25.501Z,18.98
2023-03-03T05:20:53.748Z,14.75
2023-03-03T05:23:22.400Z,17.25
2023-03-03T05:25:50.593Z,13.52
2023-03-03T05:28:19.605Z,11.73
2023-03-03T05:30:48.914Z,14.68
2023-03-03T05:33:18.238Z,9.55
2023-03-03T05:35:46.583Z,11.52
2023-03-03T05:38:14.363Z,14.07
2023-03-03T05:40:43.768Z,12.52
2023-03-03T05:43:11.712Z,11.10
2023-03-03T05:45:39.486Z,9.30
2023-03-03T05:48:10.127Z,11.52
2023-03-03T05:50:38.933Z,12.35
2023-03-03T05:53:06.705Z,10.35
2023-03-03T05:55:34.563Z,11.25
2023-03-03T05:58:02.394Z,11.32
2023-03-03T06:00:30.185Z,12.05
2023-03-03T06:02:58.061Z,15.27
2023-03-03T06:05:27.376Z,9.18
2023-03-03T06:07:55.281Z,9.35
2023-03-03T06:10:23.187Z,10.07
2023-03-03T06:12:55.129Z,10.82
2023-03-03T06:15:23.302Z,10.88
2023-03-03T06:17:51.344Z,10.68
2023-03-03T06:20:19.296Z,16.25
2023-03-03T06:22:48.375Z,13.75
2023-03-03T06:25:16.252Z,8.02
2023-03-03T06:27:44.118Z,10.82
2023-03-03T06:30:12.874Z,11.00
2023-03-03T06:32:40.798Z,8.82
2023-03-03T06:35:09.271Z,12.70
2023-03-03T06:37:37.377Z,13.68
2023-03-03T06:40:08.149Z,17.55
2023-03-03T06:42:36.009Z,16.05
2023-03-03T06:45:04.017Z,17.48
2023-03-03T06:47:33.035Z,16.45
2023-03-03T06:50:01.238Z,15.55
2023-03-03T06:52:29.243Z,19.27
2023-03-03T06:54:59.470Z,17.35
2023-03-03T06:57:30.807Z,16.10
2023-03-03T07:00:01.445Z,16.35
2023-03-03T07:02:31.860Z,12.88
2023-03-03T07:04:59.984Z,14.90
2023-03-03T07:07:31.041Z,20.08
2023-03-03T07:09:58.913Z,13.38
2023-03-03T07:12:31.151Z,15.98
2023-03-03T07:15:13.427Z,14.05
2023-03-03T07:17:45.604Z,13.40
2023-03-03T07:20:20.566Z,13.65
2023-03-03T07:22:48.772Z,20.67
2023-03-03T07:25:24.555Z,13.80
2023-03-03T07:27:54.976Z,18.58
2023-03-03T07:30:27.396Z,12.25
2023-03-03T07:32:57.518Z,18.83
2023-03-03T07:35:39.650Z,15.30
2023-03-03T07:38:24.321Z,17.23
2023-03-03T07:40:54.218Z,15.05
2023-03-03T07:43:37.025Z,18.92
2023-03-03T07:46:24.382Z,18.88
2023-03-03T07:48:53.874Z,13.52
2023-03-03T07:51:25.511Z,17.08
2023-03-03T07:53:55.610Z,14.65
2023-03-03T07:56:30.627Z,13.30
2023-03-03T07:59:00.479Z,20.95
2023-03-03T08:01:39.794Z,10.68
2023-03-03T08:04:18.432Z,14.73
2023-03-03T08:06:55.140Z,7.95
2023-03-03T08:09:39.538Z,11.90
2023-03-03T08:12:30.908Z,9.65
2023-03-03T08:15:15.835Z,9.30
2023-03-03T08:17:48.512Z,9.52
2023-03-03T08:20:43.597Z,13.68
2023-03-03T08:23:11.808Z,12.98
2023-03-03T08:25:40.729Z,12.55
2023-03-03T08:28:08.743Z,10.07
2023-03-03T08:30:38.038Z,10.07
2023-03-03T08:33:05.945Z,9.43
2023-03-03T08:35:34.148Z,13.68
2023-03-03T08:38:02.628Z,14.52
2023-03-03T08:40:30.650Z,17.65
2023-03-03T08:42:59.207Z,18.13
2023-03-03T08:45:28.447Z,19.70
2023-03-03T08:47:59.794Z,21.25
2023-03-03T08:50:28.474Z,20.08
2023-03-03T08:52:56.899Z,24.75
2023-03-03T08:55:26.558Z,17.48
2023-03-03T08:57:55.310Z,21.35
2023-03-03T09:00:26.518Z,17.55
2023-03-03T09:02:55.555Z,16.73
2023-03-03T09:05:27.197Z,19.25
2023-03-03T09:07:55.820Z,16.02
2023-03-03T09:10:27.666Z,22.20
2023-03-03T09:12:58.309Z,21.10
2023-03-03T09:15:28.625Z,25.63
2023-03-03T09:17:59.650Z,23.92
2023-03-03T09:20:41.185Z,21.70
2023-03-03T09:23:38.240Z,21.45
2023-03-03T09:26:32.537Z,22.10
2023-03-03T09:29:18.364Z,23.00
2023-03-03T09:31:48.994Z,24.10
2023-03-03T09:34:23.506Z,26.58
2023-03-03T09:36:53.839Z,23.30
2023-03-03T09:39:24.014Z,21.75
2023-03-03T09:42:26.064Z,25.15
2023-03-03T09:45:23.376Z,29.60
2023-03-03T09:48:12.750Z,29.55
2023-03-03T09:50:50.192Z,21.30
2023-03-03T09:53:33.688Z,21.48
2023-03-03T09:56:09.347Z,28.05
2023-03-03T09:58:59.748Z,22.75
2023-03-03T10:01:44.173Z,26.23
2023-03-03T10:04:39.033Z,21.25
2023-03-03T10:07:29.665Z,25.45
2023-03-03T10:10:16.508Z,23.15
2023-03-03T10:12:53.728Z,22.73
2023-03-03T10:15:38.900Z,19.40
2023-03-03T10:18:19.355Z,16.45
2023-03-03T10:20:56.164Z,24.65
2023-03-03T10:23:40.388Z,23.33
2023-03-03T10:26:38.226Z,22.45
2023-03-03T10:29:29.802Z,24.25
2023-03-03T10:32:29.566Z,20.20
2023-03-03T10:35:43.031Z,22.45
2023-03-03T10:38:24.698Z,21.00
2023-03-03T10:40:59.056Z,28.33
2023-03-03T10:43:42.575Z,19.42
2023-03-03T10:46:29.480Z,25.13
2023-03-03T10:49:27.614Z,24.20
2023-03-03T10:52:29.703Z,21.10
2023-03-03T10:55:14.346Z,20.92
2023-03-03T10:57:52.275Z,22.35
2023-03-03T11:00:28.413Z,22.92
2023-03-03T11:03:30.711Z,20.13
2023-03-03T11:06:02.584Z,21.58
2023-03-03T11:08:37.104Z,21.85
2023-03-03T11:11:16.560Z,19.85
2023-03-03T11:13:54.166Z,16.77
2023-03-03T11:16:38.630Z,14.30
2023-03-03T11:19:23.479Z,18.38
2023-03-03T11:22:01.955Z,18.50
2023-03-03T11:24:45.951Z,17.42
2023-03-03T11:27:37.633Z,14.18
2023-03-03T11:30:25.783Z,19.52
2023-03-03T11:33:07.518Z,12.73
2023-03-03T11:35:45.340Z,13.68
2023-03-03T11:38:28.548Z,16.95
2023-03-03T11:40:59.193Z,13.77
2023-03-03T11:43:37.070Z,24.25
2023-03-03T11:46:09.996Z,18.58
2023-03-03T11:48:48.134Z,17.02
2023-03-03T11:51:23.252Z,18.38
2023-03-03T11:54:05.582Z,15.60
2023-03-03T11:56:40.246Z,20.52
2023-03-03T11:59:34.123Z,21.33
2023-03-03T12:02:12.040Z,23.48
2023-03-03T12:04:46.438Z,25.02
2023-03-03T12:07:27.718Z,24.67
2023-03-03T12:10:07.891Z,21.20
2023-03-03T12:12:42.124Z,20.50
2023-03-03T12:15:22.532Z,25.00
2023-03-03T12:18:05.539Z,23.85
2023-03-03T12:20:44.872Z,17.48
2023-03-03T12:23:43.073Z,18.58
2023-03-03T12:26:17.580Z,17.30
2023-03-03T12:28:54.100Z,19.05
2023-03-03T12:31:29.110Z,19.63
2023-03-03T12:33:59.725Z,18.65
2023-03-03T12:36:51.770Z,16.95
2023-03-03T12:39:37.526Z,22.25
2023-03-03T12:42:15.166Z,18.30
2023-03-03T12:44:48.607Z,22.00
2023-03-03T12:47:23.479Z,24.00
2023-03-03T12:50:08.296Z,25.65
2023-03-03T12:52:47.734Z,26.25
2023-03-03T12:55:26.045Z,14.90
2023-03-03T12:58:03.875Z,15.27
2023-03-03T13:00:44.660Z,18.63
2023-03-03T13:03:30.350Z,14.35
2023-03-03T13:06:07.725Z,18.23
2023-03-03T13:09:03.806Z,18.73
2023-03-03T13:11:47.106Z,25.20
2023-03-03T13:14:28.985Z,19.25
2023-03-03T13:17:09.656Z,19.40
2023-03-03T13:19:45.303Z,18.23
2023-03-03T13:22:18.633Z,22.70
2023-03-03T13:25:00.493Z,22.55
2023-03-03T13:27:34.158Z,16.98
2023-03-03T13:30:04.328Z,21.02
2023-03-03T13:32:42.632Z,20.17
2023-03-03T13:35:24.838Z,19.73
2023-03-03T13:37:56.304Z,18.73
2023-03-03T13:40:29.636Z,22.48
2023-03-03T13:43:03.003Z,22.88
2023-03-03T13:45:41.975Z,18.48
2023-03-03T13:48:24.722Z,19.27
2023-03-03T13:50:58.342Z,22.02
2023-03-03T13:53:45.498Z,22.52
2023-03-03T13:56:30.081Z,16.38
2023-03-03T13:59:08.237Z,26.90
2023-03-03T14:01:50.512Z,18.92
2023-03-03T14:04:32.754Z,23.20
2023-03-03T14:07:09.781Z,22.08
2023-03-03T14:09:50.056Z,21.13
2023-03-03T14:12:26.254Z,20.80
2023-03-03T14:15:05.401Z,18.75
2023-03-03T14:17:39.696Z,17.25
2023-03-03T14:20:21.103Z,17.90
2023-03-03T14:22:54.793Z,20.70
2023-03-03T14:25:23.253Z,22.42
2023-03-03T14:28:14.211Z,18.60
2023-03-03T14:30:43.845Z,13.85
2023-03-03T14:33:21.714Z,16.23
2023-03-03T14:36:03.712Z,18.02
2023-03-03T14:38:46.861Z,19.27
2023-03-03T14:41:20.475Z,17.40
2023-03-03T14:43:59.952Z,18.80
2023-03-03T14:46:40.674Z,17.83
2023-03-03T14:49:16.000Z,17.70
2023-03-03T14:51:46.545Z,16.55
2023-03-03T14:54:26.015Z,23.67
2023-03-03T14:57:01.026Z,18.35
2023-03-03T14:59:31.198Z,26.88
2023-03-03T15:02:13.987Z,17.75
2023-03-03T15:04:41.985Z,17.40
2023-03-03T15:07:29.862Z,24.20
2023-03-03T15:09:57.849Z,18.15
2023-03-03T15:12:27.960Z,18.48
2023-03-03T15:15:18.250Z,16.67
2023-03-03T15:17:57.597Z,21.55
2023-03-03T15:20:38.172Z,26.98
2023-03-03T15:23:29.538Z,18.35
2023-03-03T15:26:01.985Z,24.85
2023-03-03T15:28:51.873Z,27.50
2023-03-03T15:31:32.135Z,29.85
2023-03-03T15:34:08.326Z,24.05
2023-03-03T15:36:49.060Z,29.35
2023-03-03T15:39:27.948Z,33.47
2023-03-03T15:42:05.951Z,31.63
2023-03-03T15:44:47.029Z,28.58
2023-03-03T15:47:35.630Z,31.83
2023-03-03T15:50:32.542Z,33.33
2023-03-03T15:53:12.782Z,28.10
2023-03-03T15:55:51.030Z,52.40
2023-03-03T15:58:46.358Z,34.17
2023-03-03T16:01:24.697Z,29.25
2023-03-03T16:03:58.931Z,35.72
2023-03-03T16:06:45.365Z,35.40
2023-03-03T16:09:26.823Z,34.65
2023-03-03T16:12:00.872Z,36.20
2023-03-03T16:14:49.649Z,35.70
2023-03-03T16:17:27.391Z,34.85
2023-03-03T16:20:08.981Z,31.58
2023-03-03T16:22:50.112Z,37.47
2023-03-03T16:25:32.395Z,29.95
2023-03-03T16:28:06.890Z,36.78
2023-03-03T16:30:42.478Z,36.65
2023-03-03T16:33:20.200Z,32.08
2023-03-03T16:36:01.479Z,30.98
2023-03-03T16:38:37.031Z,30.48
2023-03-03T16:41:10.265Z,32.10
2023-03-03T16:43:47.271Z,26.27
2023-03-03T16:46:28.700Z,23.92
2023-03-03T16:49:03.606Z,29.05
2023-03-03T16:51:42.826Z,27.13
2023-03-03T16:54:16.877Z,24.42
2023-03-03T16:56:48.168Z,24.30
2023-03-03T16:59:37.550Z,24.10
2023-03-03T17:02:21.976Z,21.77
2023-03-03T17:04:59.082Z,29.77
2023-03-03T17:07:44.586Z,28.88
2023-03-03T17:10:26.428Z,23.05
2023-03-03T17:13:15.684Z,23.02
2023-03-03T17:16:01.560Z,23.38
2023-03-03T17:18:47.673Z,18.15
2023-03-03T17:21:31.192Z,21.15
2023-03-03T17:24:19.425Z,23.27
2023-03-03T17:27:01.516Z,25.40
2023-03-03T17:29:48.804Z,21.80
2023-03-03T17:32:53.498Z,17.25
2023-03-03T17:35:53.905Z,18.13
2023-03-03T17:38:31.632Z,25.60
2023-03-03T17:41:07.871Z,17.25
2023-03-03T17:43:54.406Z,20.80
2023-03-03T17:46:31.146Z,22.00
2023-03-03T17:49:36.599Z,23.00
2023-03-03T17:52:31.036Z,18.02
2023-03-03T17:55:40.114Z,16.27
2023-03-03T17:58:38.638Z,14.45
2023-03-03T18:01:21.219Z,20.23
2023-03-03T18:04:03.897Z,15.55
2023-03-03T18:07:05.988Z,18.42
2023-03-03T18:09:48.931Z,17.15
2023-03-03T18:12:29.772Z,16.35
2023-03-03T18:15:30.278Z,14.02
2023-03-03T18:18:22.119Z,18.55
2023-03-03T18:21:08.156Z,21.33
2023-03-03T18:23:42.682Z,17.92
2023-03-03T18:26:30.600Z,15.77
2023-03-03T18:29:22.046Z,15.73
2023-03-03T18:32:22.851Z,26.63
2023-03-03T18:35:25.411Z,14.27
2023-03-03T18:37:54.354Z,11.93
2023-03-03T18:40:35.108Z,15.68
2023-03-03T18:43:36.334Z,18.35
2023-03-03T18:46:04.278Z,18.25
2023-03-03T18:48:50.375Z,26.88
2023-03-03T18:52:06.288Z,17.73
2023-03-03T18:54:41.368Z,13.15
2023-03-03T18:57:15.872Z,14.60
2023-03-03T18:59:55.478Z,16.35
2023-03-03T19:02:35.827Z,14.65
2023-03-03T19:05:20.404Z,15.65
2023-03-03T19:07:53.355Z,13.35
2023-03-03T19:10:48.174Z,17.33
2023-03-03T19:13:44.583Z,12.30
2023-03-03T19:16:28.931Z,16.67
2023-03-03T19:19:03.956Z,14.13
2023-03-03T19:21:35.109Z,12.70
2023-03-03T19:24:09.776Z,13.95
2023-03-03T19:26:52.882Z,14.23
2023-03-03T19:30:06.293Z,10.18
2023-03-03T19:33:01.667Z,18.73
2023-03-03T19:35:38.026Z,18.45
2023-03-03T19:38:23.113Z,11.10
2023-03-03T19:41:00.818Z,12.85
2023-03-03T19:43:44.599Z,9.95
2023-03-03T19:46:26.820Z,12.13
2023-03-03T19:49:05.738Z,8.18
2023-03-03T19:51:42.003Z,10.73
2023-03-03T19:54:26.670Z,12.73
2023-03-03T19:56:57.332Z,6.28
2023-03-03T19:59:34.863Z,7.43
2023-03-03T20:02:37.678Z,11.70
2023-03-03T20:05:20.466Z,7.85
2023-03-03T20:07:59.282Z,8.20
2023-03-03T20:10:42.901Z,6.97
2023-03-03T20:13:26.916Z,10.13
2023-03-03T20:16:03.722Z,9.52
2023-03-03T20:18:58.659Z,6.10
2023-03-03T20:21:34.052Z,6.85
2023-03-03T20:24:23.612Z,11.00
2023-03-03T20:26:58.861Z,7.43
2023-03-03T20:29:55.241Z,7.18
2023-03-03T20:32:33.720Z,8.82
2023-03-03T20:35:10.061Z,9.10
2023-03-03T20:37:47.252Z,6.10
2023-03-03T20:40:27.176Z,12.05
2023-03-03T20:43:06.331Z,10.93
2023-03-03T20:45:46.741Z,8.25
2023-03-03T20:48:33.363Z,6.68
2023-03-03T20:51:08.617Z,8.45
2023-03-03T20:53:45.460Z,23.83
2023-03-03T20:56:18.335Z,8.48
2023-03-03T20:59:05.936Z,9.60
2023-03-03T21:01:41.367Z,6.70
2023-03-03T21:04:20.009Z,17.48
2023-03-03T21:06:48.714Z,9.00
2023-03-03T21:09:24.866Z,6.78
2023-03-03T21:11:53.085Z,6.50
2023-03-03T21:14:24.152Z,8.50
2023-03-03T21:16:54.410Z,4.50
2023-03-03T21:19:29.108Z,8.95
2023-03-03T21:21:58.510Z,7.40
2023-03-03T21:24:49.977Z,5.55
2023-03-03T21:27:29.976Z,16.35
2023-03-03T21:30:10.434Z,6.05
2023-03-03T21:32:40.399Z,8.18
2023-03-03T21:35:11.003Z,5.80
2023-03-03T21:37:49.481Z,6.05
2023-03-03T21:40:23.236Z,5.53
2023-03-03T21:42:51.382Z,8.05
2023-03-03T21:45:21.219Z,3.30
2023-03-03T21:47:49.614Z,7.35
2023-03-03T21:50:20.260Z,4.15
2023-03-03T21:52:48.476Z,6.93
2023-03-03T21:55:16.620Z,13.18
2023-03-03T21:57:44.993Z,5.10
2023-03-03T22:00:13.999Z,3.08
2023-03-03T22:02:43.199Z,5.40
2023-03-03T22:05:12.006Z,9.15
2023-03-03T22:07:44.183Z,11.15
2023-03-03T22:10:12.917Z,7.13
2023-03-03T22:12:40.753Z,4.85
2023-03-03T22:15:09.225Z,7.43
2023-03-03T22:17:37.027Z,3.42
2023-03-03T22:20:07.447Z,8.23
2023-03-03T22:22:35.461Z,4.22
2023-03-03T22:25:06.081Z,4.00
2023-03-03T22:27:34.680Z,5.28
2023-03-03T22:30:03.042Z,12.95
2023-03-03T22:32:30.902Z,6.15
2023-03-03T22:34:59.555Z,2.97
2023-03-03T22:37:28.761Z,10.52
2023-03-03T22:39:58.793Z,4.57
2023-03-03T22:42:26.560Z,5.53
2023-03-03T22:44:54.515Z,18.58
2023-03-03T22:47:22.552Z,3.38
2023-03-03T22:49:50.545Z,5.28
2023-03-03T22:52:18.268Z,2.60
2023-03-03T22:54:47.615Z,4.13
2023-03-03T22:57:15.870Z,13.05
2023-03-03T22:59:43.904Z,5.43
2023-03-03T23:02:11.689Z,5.68
2023-03-03T23:04:39.753Z,9.00
2023-03-03T23:07:07.836Z,12.90
2023-03-03T23:09:35.678Z,11.13
2023-03-03T23:12:05.359Z,9.43
2023-03-03T23:14:33.231Z,3.30
2023-03-03T23:17:01.142Z,6.07
2023-03-03T23:19:29.007Z,2.65
2023-03-03T23:21:56.867Z,7.72
2023-03-03T23:24:24.775Z,6.45
2023-03-03T23:26:56.857Z,5.40
2023-03-03T23:29:26.196Z,9.25
2023-03-03T23:31:54.164Z,10.05
2023-03-03T23:34:22.206Z,6.88
2023-03-03T23:36:50.074Z,13.15
2023-03-03T23:39:17.921Z,8.27
2023-03-03T23:41:46.099Z,8.55
2023-03-03T23:44:14.196Z,2.65
2023-03-03T23:46:43.525Z,7.00
2023-03-03T23:49:11.790Z,3.38
2023-03-03T23:51:39.731Z,6.68
2023-03-03T23:54:07.550Z,4.95
2023-03-03T23:56:35.574Z,1.17
2023-03-03T23:59:03.483Z,19.20
